createdAt,value
2022-08-11T00:01:13.667Z,3.30
2022-08-11T00:03:58.502Z,2.67
2022-08-11T00:06:35.327Z,3.20
2022-08-11T00:09:05.762Z,3.03
2022-08-11T00:11:38.451Z,2.65
2022-08-11T00:14:22.583Z,3.13
2022-08-11T00:17:05.211Z,2.85
2022-08-11T00:20:13.977Z,3.10
2022-08-11T00:22:30.393Z,3.38
2022-08-11T00:25:02.120Z,3.10
2022-08-11T00:27:37.914Z,3.17
2022-08-11T00:32:34.648Z,2.88
2022-08-11T00:35:51.587Z,3.53
2022-08-11T00:37:52.225Z,3.20
2022-08-11T00:40:28.395Z,3.78
2022-08-11T00:43:23.991Z,3.28
2022-08-11T00:46:35.046Z,3.33
2022-08-11T00:49:20.481Z,3.40
2022-08-11T00:52:14.887Z,3.60
2022-08-11T00:55:02.898Z,3.47
2022-08-11T00:57:38.992Z,3.38
2022-08-11T01:00:23.448Z,3.83
2022-08-11T01:03:32.901Z,3.75
2022-08-11T01:06:29.226Z,3.35
2022-08-11T01:09:33.892Z,3.28
2022-08-11T01:12:16.077Z,3.28
2022-08-11T01:15:13.500Z,3.35
2022-08-11T01:18:10.944Z,3.35
2022-08-11T01:21:14.751Z,3.40
2022-08-11T01:24:19.151Z,3.35
2022-08-11T01:27:20.075Z,3.60
2022-08-11T01:29:49.897Z,3.13
2022-08-11T01:32:55.253Z,3.22
2022-08-11T01:35:35.493Z,3.20
2022-08-11T01:38:25.658Z,3.47
2022-08-11T01:41:10.838Z,3.28
2022-08-11T01:44:18.413Z,3.35
2022-08-11T01:46:57.633Z,3.08
2022-08-11T01:50:07.031Z,3.17
2022-08-11T01:53:01.061Z,3.05
2022-08-11T01:55:58.365Z,3.40
2022-08-11T01:58:48.160Z,2.88
2022-08-11T02:01:23.947Z,3.42
2022-08-11T02:04:10.925Z,3.00
2022-08-11T02:06:56.225Z,3.55
2022-08-11T02:10:00.729Z,3.55
2022-08-11T02:12:52.177Z,3.43
2022-08-11T02:15:29.074Z,3.22
2022-08-11T02:18:13.669Z,3.72
2022-08-11T02:21:14.629Z,3.85
2022-08-11T02:24:04.404Z,3.55
2022-08-11T02:26:48.804Z,3.30
2022-08-11T02:29:18.681Z,3.30
2022-08-11T02:32:30.721Z,3.10
2022-08-11T02:35:10.353Z,3.22
2022-08-11T02:37:51.112Z,3.30
2022-08-11T02:40:28.186Z,3.50
2022-08-11T02:43:23.049Z,3.65
2022-08-11T02:46:24.782Z,3.38
2022-08-11T02:50:02.750Z,4.10
2022-08-11T02:52:46.185Z,3.60
2022-08-11T02:55:47.011Z,3.40
2022-08-11T02:58:41.399Z,3.55
2022-08-11T03:01:20.127Z,3.42
2022-08-11T03:04:13.775Z,3.63
2022-08-11T03:07:29.130Z,3.35
2022-08-11T03:10:27.247Z,3.60
2022-08-11T03:13:34.269Z,3.83
2022-08-11T03:16:25.394Z,3.33
2022-08-11T03:19:35.046Z,3.58
2022-08-11T03:22:06.402Z,3.63
2022-08-11T03:25:13.874Z,4.05
2022-08-11T03:27:52.964Z,4.40
2022-08-11T03:30:25.647Z,3.17
2022-08-11T03:33:30.993Z,3.50
2022-08-11T03:36:25.044Z,3.85
2022-08-11T03:39:10.771Z,3.80
2022-08-11T03:42:03.476Z,3.92
2022-08-11T03:44:52.398Z,3.63
2022-08-11T03:47:54.930Z,4.10
2022-08-11T03:50:41.245Z,3.70
2022-08-11T03:55:55.154Z,3.78
2022-08-11T03:58:58.535Z,4.30
2022-08-11T04:01:38.115Z,4.07
2022-08-11T04:04:42.459Z,4.65
2022-08-11T04:07:46.124Z,4.70
2022-08-11T04:10:24.907Z,4.70
2022-08-11T04:13:10.406Z,4.70
2022-08-11T04:18:54.569Z,4.25
2022-08-11T04:21:39.911Z,4.53
2022-08-11T04:24:38.500Z,4.43
2022-08-11T04:27:24.989Z,4.85
2022-08-11T04:30:20.167Z,4.90
2022-08-11T04:32:59.184Z,4.63
2022-08-11T04:35:48.577Z,5.05
2022-08-11T04:38:59.019Z,5.05
2022-08-11T04:42:26.254Z,4.70
2022-08-11T04:45:03.810Z,4.95
2022-08-11T04:48:13.429Z,5.28
2022-08-11T04:51:08.858Z,5.35
2022-08-11T04:54:47.576Z,5.13
2022-08-11T04:58:03.370Z,5.72
2022-08-11T05:01:11.267Z,5.47
2022-08-11T05:03:50.111Z,4.80
2022-08-11T05:06:57.387Z,4.75
2022-08-11T05:09:49.582Z,4.88
2022-08-11T05:12:26.112Z,4.80
2022-08-11T05:15:13.760Z,3.92
2022-08-11T05:18:19.066Z,4.25
2022-08-11T05:21:11.641Z,3.83
2022-08-11T05:24:07.040Z,3.83
2022-08-11T05:27:05.552Z,3.85
2022-08-11T05:30:03.396Z,3.83
2022-08-11T05:33:02.004Z,3.72
2022-08-11T05:36:01.949Z,3.30
2022-08-11T05:38:54.966Z,3.50
2022-08-11T05:41:44.001Z,3.33
2022-08-11T05:44:36.451Z,3.25
2022-08-11T05:47:23.036Z,3.30
2022-08-11T05:50:13.516Z,3.38
2022-08-11T05:53:05.240Z,3.70
2022-08-11T05:56:02.935Z,3.35
2022-08-11T05:58:44.866Z,3.85
2022-08-11T06:01:22.071Z,3.03
2022-08-11T06:04:11.246Z,3.17
2022-08-11T06:06:45.543Z,3.25
2022-08-11T06:09:14.720Z,3.20
2022-08-11T06:11:45.120Z,3.30
2022-08-11T06:14:13.564Z,3.17
2022-08-11T06:16:42.912Z,2.90
2022-08-11T06:19:11.018Z,3.03
2022-08-11T06:21:38.532Z,3.22
2022-08-11T06:24:13.820Z,2.92
2022-08-11T06:27:12.400Z,3.20
2022-08-11T06:29:55.101Z,3.28
2022-08-11T06:32:45.054Z,2.83
2022-08-11T06:35:46.918Z,3.15
2022-08-11T06:38:23.707Z,2.92
2022-08-11T06:41:17.828Z,2.40
2022-08-11T06:43:59.886Z,2.35
2022-08-11T06:46:39.088Z,2.35
2022-08-11T06:49:30.317Z,2.25
2022-08-11T06:52:04.975Z,2.28
2022-08-11T06:54:44.481Z,2.20
2022-08-11T06:57:34.001Z,2.22
2022-08-11T07:00:20.640Z,2.55
2022-08-11T07:02:56.396Z,1.92
2022-08-11T07:05:46.147Z,2.30
2022-08-11T07:08:50.356Z,2.17
2022-08-11T07:11:44.995Z,2.50
2022-08-11T07:14:37.766Z,2.72
2022-08-11T07:17:08.918Z,2.63
2022-08-11T07:19:59.808Z,2.50
2022-08-11T07:22:49.017Z,2.80
2022-08-11T07:25:36.034Z,2.75
2022-08-11T07:28:30.957Z,3.85
2022-08-11T07:31:03.805Z,3.00
2022-08-11T07:34:10.263Z,3.50
2022-08-11T07:36:45.696Z,2.88
2022-08-11T07:39:25.134Z,3.45
2022-08-11T07:41:54.938Z,3.28
2022-08-11T07:44:29.361Z,2.67
2022-08-11T07:47:18.899Z,2.97
2022-08-11T07:50:06.902Z,2.70
2022-08-11T07:52:38.424Z,2.35
2022-08-11T07:55:17.239Z,2.40
2022-08-11T07:58:15.586Z,2.30
2022-08-11T08:01:21.594Z,2.20
2022-08-11T08:04:09.732Z,2.03
2022-08-11T08:06:56.387Z,2.15
2022-08-11T08:09:43.482Z,2.30
2022-08-11T08:12:30.734Z,1.92
2022-08-11T08:15:16.727Z,2.00
2022-08-11T08:18:09.932Z,1.60
2022-08-11T08:20:52.470Z,1.65
2022-08-11T08:23:33.580Z,1.70
2022-08-11T08:26:04.618Z,1.60
2022-08-11T08:28:32.932Z,1.92
2022-08-11T08:31:05.211Z,1.73
2022-08-11T08:33:33.345Z,1.98
2022-08-11T08:36:12.274Z,1.85
2022-08-11T08:38:41.685Z,2.00
2022-08-11T08:41:09.808Z,1.67
2022-08-11T08:43:48.681Z,1.70
2022-08-11T08:46:19.386Z,2.00
2022-08-11T08:48:48.101Z,1.50
2022-08-11T08:52:00.930Z,1.48
2022-08-11T08:54:29.044Z,1.60
2022-08-11T08:56:58.712Z,1.45
2022-08-11T08:59:44.936Z,1.55
2022-08-11T09:02:14.951Z,1.50
2022-08-11T09:04:45.807Z,1.60
2022-08-11T09:07:16.725Z,1.50
2022-08-11T09:09:46.432Z,1.63
2022-08-11T09:12:16.913Z,1.77
2022-08-11T09:15:08.076Z,1.70
2022-08-11T09:17:40.741Z,2.17
2022-08-11T09:20:22.945Z,1.75
2022-08-11T09:26:19.205Z,1.50
2022-08-11T09:28:49.835Z,1.50
2022-08-11T09:31:17.519Z,1.52
2022-08-11T09:33:45.937Z,1.23
2022-08-11T09:36:32.711Z,1.40
2022-08-11T09:39:21.972Z,1.60
2022-08-11T09:42:00.545Z,1.45
2022-08-11T09:44:50.800Z,1.42
2022-08-11T09:47:27.150Z,1.60
2022-08-11T09:50:02.656Z,1.50
2022-08-11T09:52:34.689Z,1.50
2022-08-11T09:55:03.275Z,1.60
2022-08-11T09:57:48.621Z,1.52
2022-08-11T10:00:16.257Z,1.40
2022-08-11T10:02:47.312Z,1.02
2022-08-11T10:05:36.719Z,1.52
2022-08-11T10:08:04.965Z,1.40
2022-08-11T10:10:37.576Z,1.30
2022-08-11T10:14:31.006Z,1.67
2022-08-11T10:16:16.293Z,1.67
2022-08-11T10:18:54.185Z,1.70
2022-08-11T10:21:36.317Z,1.45
2022-08-11T10:24:23.707Z,1.50
2022-08-11T10:26:56.084Z,1.23
2022-08-11T10:29:56.675Z,1.40
2022-08-11T10:32:57.797Z,1.30
2022-08-11T10:35:28.780Z,1.80
2022-08-11T10:38:06.295Z,1.25
2022-08-11T10:40:36.064Z,1.40
2022-08-11T10:43:05.711Z,1.38
2022-08-11T10:45:59.333Z,1.75
2022-08-11T10:48:29.943Z,1.58
2022-08-11T10:51:13.560Z,1.50
2022-08-11T10:54:03.873Z,1.50
2022-08-11T10:56:54.579Z,1.70
2022-08-11T10:59:26.153Z,2.30
2022-08-11T11:01:54.654Z,1.58
2022-08-11T11:04:34.553Z,1.80
2022-08-11T11:07:27.062Z,1.75
2022-08-11T11:10:02.003Z,1.60
2022-08-11T11:12:58.673Z,1.60
2022-08-11T11:15:48.160Z,1.77
2022-08-11T11:18:29.875Z,1.67
2022-08-11T11:21:14.596Z,1.95
2022-08-11T11:24:13.680Z,1.70
2022-08-11T11:27:20.829Z,1.48
2022-08-11T11:30:00.814Z,1.67
2022-08-11T11:32:49.557Z,1.63
2022-08-11T11:35:27.895Z,1.48
2022-08-11T11:38:04.156Z,1.58
2022-08-11T11:40:32.913Z,1.85
2022-08-11T11:43:00.843Z,1.73
2022-08-11T11:45:28.077Z,1.50
2022-08-11T11:47:59.156Z,1.75
2022-08-11T11:50:35.933Z,1.67
2022-08-11T11:53:09.856Z,1.60
2022-08-11T11:55:37.391Z,1.90
2022-08-11T11:58:23.698Z,1.85
2022-08-11T12:01:12.187Z,1.60
2022-08-11T12:03:40.268Z,1.90
2022-08-11T12:06:08.894Z,1.60
2022-08-11T12:08:40.159Z,1.63
2022-08-11T12:11:29.388Z,1.70
2022-08-11T12:13:59.706Z,1.77
2022-08-11T12:16:35.070Z,1.60
2022-08-11T12:19:13.391Z,1.80
2022-08-11T12:22:01.105Z,1.65
2022-08-11T12:24:51.115Z,1.60
2022-08-11T12:27:24.976Z,1.52
2022-08-11T12:32:27.204Z,1.75
2022-08-11T12:34:56.995Z,1.40
2022-08-11T12:37:31.727Z,1.63
2022-08-11T12:43:37.877Z,2.00
2022-08-11T12:46:12.546Z,1.48
2022-08-11T12:49:06.699Z,1.65
2022-08-11T12:52:12.371Z,1.65
2022-08-11T12:55:13.200Z,1.60
2022-08-11T12:58:05.045Z,1.40
2022-08-11T13:00:51.983Z,1.70
2022-08-11T13:03:40.793Z,2.10
2022-08-11T13:06:08.607Z,1.80
2022-08-11T13:08:39.581Z,1.98
2022-08-11T13:11:56.743Z,1.60
2022-08-11T13:14:15.278Z,1.60
2022-08-11T13:17:02.825Z,1.48
2022-08-11T13:19:31.306Z,1.83
2022-08-11T13:21:58.919Z,1.80
2022-08-11T13:24:26.331Z,1.70
2022-08-11T13:26:53.487Z,1.65
2022-08-11T13:29:29.089Z,1.40
2022-08-11T13:31:59.778Z,1.70
2022-08-11T13:34:31.266Z,1.60
2022-08-11T13:37:00.994Z,1.70
2022-08-11T13:39:31.028Z,1.75
2022-08-11T13:42:00.562Z,1.70
2022-08-11T13:44:30.372Z,1.60
2022-08-11T13:47:04.471Z,2.00
2022-08-11T13:49:34.299Z,1.70
2022-08-11T13:52:05.512Z,1.80
2022-08-11T13:54:35.342Z,1.77
2022-08-11T13:57:13.642Z,1.77
2022-08-11T14:00:23.473Z,1.65
2022-08-11T14:02:57.454Z,1.70
2022-08-11T14:05:39.416Z,2.03
2022-08-11T14:08:37.584Z,1.90
2022-08-11T14:12:20.554Z,1.80
2022-08-11T14:14:19.252Z,1.83
2022-08-11T14:16:48.859Z,1.83
2022-08-11T14:19:18.571Z,1.77
2022-08-11T14:22:07.863Z,1.73
2022-08-11T14:24:38.776Z,2.00
2022-08-11T14:28:29.418Z,1.98
2022-08-11T14:29:59.184Z,1.70
2022-08-11T14:32:26.909Z,2.17
2022-08-11T14:34:55.125Z,1.95
2022-08-11T14:37:24.957Z,2.10
2022-08-11T14:40:02.935Z,1.48
2022-08-11T14:42:49.939Z,1.85
2022-08-11T14:45:57.687Z,1.40
2022-08-11T14:48:24.150Z,1.38
2022-08-11T14:50:51.528Z,1.30
2022-08-11T14:53:22.364Z,1.63
2022-08-11T14:56:08.620Z,2.03
2022-08-11T14:58:37.441Z,1.92
2022-08-11T15:01:28.033Z,2.35
2022-08-11T15:04:31.308Z,1.60
2022-08-11T15:06:43.814Z,1.80
2022-08-11T15:09:10.727Z,1.63
2022-08-11T15:11:56.060Z,1.95
2022-08-11T15:14:42.396Z,1.70
2022-08-11T15:17:11.808Z,2.00
2022-08-11T15:20:02.436Z,1.80
2022-08-11T15:22:48.432Z,1.75
2022-08-11T15:25:15.551Z,2.03
2022-08-11T15:28:04.982Z,1.70
2022-08-11T15:30:51.144Z,1.48
2022-08-11T15:33:37.909Z,1.65
2022-08-11T15:36:27.231Z,1.50
2022-08-11T15:39:03.303Z,1.80
2022-08-11T15:42:00.313Z,1.63
2022-08-11T15:45:06.039Z,1.73
2022-08-11T15:48:00.664Z,1.85
2022-08-11T15:50:36.878Z,1.48
2022-08-11T15:53:25.992Z,1.50
2022-08-11T15:55:55.009Z,1.55
2022-08-11T15:58:43.213Z,2.08
2022-08-11T16:01:32.114Z,1.80
2022-08-11T16:04:13.379Z,1.70
2022-08-11T16:06:47.605Z,2.03
2022-08-11T16:09:21.360Z,1.77
2022-08-11T16:11:50.195Z,1.65
2022-08-11T16:14:37.853Z,2.30
2022-08-11T16:17:08.570Z,2.00
2022-08-11T16:19:36.802Z,2.10
2022-08-11T16:22:12.059Z,1.92
2022-08-11T16:27:03.987Z,2.20
2022-08-11T16:27:35.408Z,1.65
2022-08-11T16:30:03.820Z,1.70
2022-08-11T16:32:32.673Z,2.15
2022-08-11T16:35:21.608Z,1.80
2022-08-11T16:38:07.912Z,1.80
2022-08-11T16:40:35.496Z,2.15
2022-08-11T16:43:24.930Z,1.98
2022-08-11T16:46:12.791Z,1.60
2022-08-11T16:48:42.741Z,1.77
2022-08-11T16:51:12.794Z,1.75
2022-08-11T16:53:54.786Z,1.60
2022-08-11T16:56:41.826Z,2.00
2022-08-11T16:59:20.109Z,2.25
2022-08-11T17:02:04.961Z,1.60
2022-08-11T17:05:09.150Z,1.80
2022-08-11T17:08:01.161Z,2.00
2022-08-11T17:11:03.882Z,1.70
2022-08-11T17:13:38.632Z,2.13
2022-08-11T17:16:13.258Z,1.60
2022-08-11T17:18:50.431Z,1.85
2022-08-11T17:21:33.961Z,1.80
2022-08-11T17:24:09.062Z,1.50
2022-08-11T17:26:58.265Z,1.67
2022-08-11T17:29:27.424Z,2.05
2022-08-11T17:32:14.484Z,1.73
2022-08-11T17:35:03.188Z,1.77
2022-08-11T17:37:33.427Z,1.65
2022-08-11T17:40:03.985Z,1.80
2022-08-11T17:42:51.746Z,1.95
2022-08-11T17:45:40.210Z,1.65
2022-08-11T17:48:25.802Z,1.90
2022-08-11T17:50:59.407Z,1.65
2022-08-11T17:54:02.117Z,1.65
2022-08-11T17:57:06.961Z,2.00
2022-08-11T17:59:56.348Z,1.50
2022-08-11T18:02:44.680Z,2.28
2022-08-11T18:05:18.312Z,1.70
2022-08-11T18:08:05.127Z,2.10
2022-08-11T18:10:55.544Z,2.15
2022-08-11T18:13:42.374Z,2.00
2022-08-11T18:16:28.809Z,2.20
2022-08-11T18:19:14.597Z,2.10
2022-08-11T18:22:13.064Z,2.28
2022-08-11T18:25:09.004Z,2.45
2022-08-11T18:27:57.128Z,1.92
2022-08-11T18:30:44.070Z,1.83
2022-08-11T18:34:06.001Z,2.00
2022-08-11T18:36:42.376Z,2.08
2022-08-11T18:39:32.413Z,2.13
2022-08-11T18:42:29.578Z,1.70
2022-08-11T18:45:22.771Z,2.05
2022-08-11T18:48:11.578Z,2.10
2022-08-11T18:51:31.762Z,2.10
2022-08-11T18:54:10.793Z,2.55
2022-08-11T18:56:56.629Z,2.20
2022-08-11T18:59:46.010Z,2.30
2022-08-11T19:02:48.687Z,2.35
2022-08-11T19:06:35.889Z,2.13
2022-08-11T19:08:49.406Z,2.20
2022-08-11T19:11:40.974Z,2.50
2022-08-11T19:14:31.388Z,2.40
2022-08-11T19:17:45.093Z,2.55
2022-08-11T19:20:36.411Z,2.28
2022-08-11T19:23:24.384Z,2.10
2022-08-11T19:26:10.693Z,2.25
2022-08-11T19:29:00.831Z,2.50
2022-08-11T19:31:48.259Z,2.40
2022-08-11T19:34:39.533Z,2.50
2022-08-11T19:37:26.652Z,2.42
2022-08-11T19:40:15.605Z,2.63
2022-08-11T19:43:11.243Z,2.50
2022-08-11T19:46:12.250Z,2.88
2022-08-11T19:48:58.847Z,2.25
2022-08-11T19:51:45.402Z,2.58
2022-08-11T19:54:35.865Z,3.10
2022-08-11T19:57:23.518Z,2.67
2022-08-11T20:00:09.887Z,2.80
2022-08-11T20:02:55.649Z,2.60
2022-08-11T20:05:55.760Z,2.85
2022-08-11T20:08:47.996Z,3.33
2022-08-11T20:11:35.961Z,3.58
2022-08-11T20:14:23.475Z,3.30
2022-08-11T20:17:11.949Z,3.22
2022-08-11T20:20:02.664Z,4.10
2022-08-11T20:22:50.705Z,4.85
2022-08-11T20:25:37.779Z,4.60
2022-08-11T20:28:25.308Z,4.65
2022-08-11T20:31:12.676Z,4.13
2022-08-11T20:34:00.834Z,4.80
2022-08-11T20:36:54.158Z,3.95
2022-08-11T20:39:41.916Z,4.10
2022-08-11T20:42:31.074Z,3.85
2022-08-11T20:45:23.826Z,3.60
2022-08-11T20:48:15.167Z,3.70
2022-08-11T20:51:07.399Z,3.88
2022-08-11T20:53:59.663Z,3.63
2022-08-11T20:56:53.345Z,3.30
2022-08-11T20:59:56.414Z,3.33
2022-08-11T21:02:44.530Z,2.85
2022-08-11T21:06:10.383Z,3.47
2022-08-11T21:08:39.009Z,2.95
2022-08-11T21:11:29.408Z,3.13
2022-08-11T21:14:18.471Z,3.42
2022-08-11T21:17:27.945Z,3.28
2022-08-11T21:20:20.587Z,3.28
2022-08-11T21:23:19.784Z,3.38
2022-08-11T21:26:19.789Z,3.65
2022-08-11T21:29:06.589Z,3.20
2022-08-11T21:31:54.093Z,3.03
2022-08-11T21:34:42.262Z,3.47
2022-08-11T21:37:31.046Z,3.13
2022-08-11T21:40:22.602Z,3.33
2022-08-11T21:43:10.426Z,3.20
2022-08-11T21:45:57.894Z,3.13
2022-08-11T21:48:45.724Z,3.10
2022-08-11T21:51:31.456Z,2.72
2022-08-11T21:54:19.462Z,2.80
2022-08-11T21:57:06.212Z,2.90
2022-08-11T22:00:10.396Z,2.70
2022-08-11T22:02:58.435Z,2.90
2022-08-11T22:05:45.605Z,3.38
2022-08-11T22:08:31.920Z,3.05
2022-08-11T22:11:31.984Z,3.25
2022-08-11T22:14:22.565Z,2.63
2022-08-11T22:17:08.721Z,2.92
2022-08-11T22:20:00.633Z,3.05
2022-08-11T22:22:52.907Z,3.30
2022-08-11T22:25:54.316Z,3.00
2022-08-11T22:28:41.004Z,3.55
2022-08-11T22:31:28.212Z,2.90
2022-08-11T22:34:14.335Z,3.08
2022-08-11T22:37:01.508Z,3.10
2022-08-11T22:40:01.561Z,3.10
2022-08-11T22:42:51.655Z,3.20
2022-08-11T22:45:37.972Z,3.30
2022-08-11T22:48:28.161Z,2.97
2022-08-11T22:51:14.776Z,2.90
2022-08-11T22:54:01.779Z,3.30
2022-08-11T22:56:50.002Z,3.05
2022-08-11T22:59:37.152Z,2.83
2022-08-11T23:02:24.385Z,3.13
2022-08-11T23:05:11.255Z,2.88
2022-08-11T23:07:57.898Z,3.20
2022-08-11T23:10:45.279Z,3.25
2022-08-11T23:13:32.089Z,2.83
2022-08-11T23:16:17.994Z,3.08
2022-08-11T23:19:04.198Z,3.20
2022-08-11T23:21:52.071Z,3.10
2022-08-11T23:24:39.596Z,2.67
2022-08-11T23:27:27.367Z,3.20
2022-08-11T23:30:18.887Z,2.95
2022-08-11T23:33:09.072Z,2.83
2022-08-11T23:36:03.320Z,3.50
2022-08-11T23:38:51.676Z,3.13
2022-08-11T23:41:37.357Z,3.50
2022-08-11T23:44:24.767Z,3.15
2022-08-11T23:47:14.657Z,3.08
2022-08-11T23:50:01.537Z,2.80
2022-08-11T23:52:47.790Z,3.38
2022-08-11T23:55:33.605Z,3.65
2022-08-11T23:58:19.023Z,3.20
